sensor_id;sensor_type;location;lat;lon;timestamp;P1;durP1;ratioP1;P2;durP2;ratioP2
2722;SDS011;1369;53.216;10.396;2023-08-31T00:01:22;5.73;;;3.27;;
2722;SDS011;1369;53.216;10.396;2023-08-31T00:03:49;3.87;;;2.40;;
2722;SDS011;1369;53.216;10.396;2023-08-31T00:06:15;3.40;;;2.73;;
2722;SDS011;1369;53.216;10.396;2023-08-31T00:08:44;4.43;;;3.40;;
2722;SDS011;1369;53.216;10.396;2023-08-31T00:11:10;2.77;;;2.43;;
2722;SDS011;1369;53.216;10.396;2023-08-31T00:13:39;4.10;;;2.57;;
2722;SDS011;1369;53.216;10.396;2023-08-31T00:16:05;3.40;;;3.03;;
2722;SDS011;1369;53.216;10.396;2023-08-31T00:18:50;4.10;;;3.33;;
2722;SDS011;1369;53.216;10.396;2023-08-31T00:21:16;5.10;;;3.90;;
2722;SDS011;1369;53.216;10.396;2023-08-31T00:24:02;3.00;;;2.53;;
2722;SDS011;1369;53.216;10.396;2023-08-31T00:26:32;6.03;;;4.03;;
2722;SDS011;1369;53.216;10.396;2023-08-31T00:28:59;5.00;;;2.40;;
2722;SDS011;1369;53.216;10.396;2023-08-31T00:31:24;3.87;;;2.40;;
2722;SDS011;1369;53.216;10.396;2023-08-31T00:33:52;4.40;;;3.67;;
2722;SDS011;1369;53.216;10.396;2023-08-31T00:36:18;2.30;;;2.10;;
2722;SDS011;1369;53.216;10.396;2023-08-31T00:38:53;5.03;;;2.20;;
2722;SDS011;1369;53.216;10.396;2023-08-31T00:41:19;3.87;;;2.80;;
2722;SDS011;1369;53.216;10.396;2023-08-31T00:43:47;4.70;;;3.60;;
2722;SDS011;1369;53.216;10.396;2023-08-31T00:46:12;2.80;;;2.43;;
2722;SDS011;1369;53.216;10.396;2023-08-31T00:48:48;3.20;;;2.90;;
2722;SDS011;1369;53.216;10.396;2023-08-31T00:51:14;3.67;;;2.80;;
2722;SDS011;1369;53.216;10.396;2023-08-31T00:53:53;3.00;;;2.10;;
2722;SDS011;1369;53.216;10.396;2023-08-31T00:56:19;4.90;;;3.00;;
2722;SDS011;1369;53.216;10.396;2023-08-31T00:58:47;3.73;;;2.30;;
2722;SDS011;1369;53.216;10.396;2023-08-31T01:01:27;5.93;;;3.80;;
2722;SDS011;1369;53.216;10.396;2023-08-31T01:04:33;3.83;;;3.50;;
2722;SDS011;1369;53.216;10.396;2023-08-31T01:07:46;4.20;;;2.73;;
2722;SDS011;1369;53.216;10.396;2023-08-31T01:16:16;5.53;;;2.53;;
2722;SDS011;1369;53.216;10.396;2023-08-31T01:19:01;4.60;;;3.40;;
2722;SDS011;1369;53.216;10.396;2023-08-31T01:21:33;6.50;;;5.73;;
2722;SDS011;1369;53.216;10.396;2023-08-31T01:24:12;3.73;;;3.17;;
2722;SDS011;1369;53.216;10.396;2023-08-31T01:26:39;4.80;;;3.30;;
2722;SDS011;1369;53.216;10.396;2023-08-31T01:29:06;6.67;;;4.33;;
2722;SDS011;1369;53.216;10.396;2023-08-31T01:31:41;4.33;;;3.20;;
2722;SDS011;1369;53.216;10.396;2023-08-31T01:34:08;3.10;;;2.73;;
2722;SDS011;1369;53.216;10.396;2023-08-31T01:36:34;2.83;;;1.93;;
2722;SDS011;1369;53.216;10.396;2023-08-31T01:41:34;5.67;;;2.57;;
2722;SDS011;1369;53.216;10.396;2023-08-31T01:44:01;5.63;;;2.27;;
2722;SDS011;1369;53.216;10.396;2023-08-31T01:46:32;2.20;;;1.73;;
2722;SDS011;1369;53.216;10.396;2023-08-31T01:48:58;5.63;;;3.10;;
2722;SDS011;1369;53.216;10.396;2023-08-31T01:51:26;3.60;;;3.20;;
2722;SDS011;1369;53.216;10.396;2023-08-31T01:53:53;2.87;;;2.00;;
2722;SDS011;1369;53.216;10.396;2023-08-31T01:56:30;3.90;;;3.40;;
2722;SDS011;1369;53.216;10.396;2023-08-31T01:58:57;4.00;;;2.20;;
2722;SDS011;1369;53.216;10.396;2023-08-31T02:01:24;3.10;;;2.80;;
2722;SDS011;1369;53.216;10.396;2023-08-31T02:06:44;4.97;;;2.60;;
2722;SDS011;1369;53.216;10.396;2023-08-31T02:09:13;4.30;;;2.27;;
2722;SDS011;1369;53.216;10.396;2023-08-31T02:11:40;3.73;;;2.67;;
2722;SDS011;1369;53.216;10.396;2023-08-31T02:14:23;6.03;;;2.60;;
2722;SDS011;1369;53.216;10.396;2023-08-31T02:16:51;3.60;;;2.90;;
2722;SDS011;1369;53.216;10.396;2023-08-31T02:19:27;2.70;;;2.23;;
2722;SDS011;1369;53.216;10.396;2023-08-31T02:22:00;5.67;;;3.10;;
2722;SDS011;1369;53.216;10.396;2023-08-31T02:24:29;3.43;;;1.93;;
2722;SDS011;1369;53.216;10.396;2023-08-31T02:26:55;2.00;;;1.50;;
2722;SDS011;1369;53.216;10.396;2023-08-31T02:29:25;12.10;;;2.20;;
2722;SDS011;1369;53.216;10.396;2023-08-31T02:31:51;2.70;;;1.87;;
2722;SDS011;1369;53.216;10.396;2023-08-31T02:34:18;3.30;;;2.57;;
2722;SDS011;1369;53.216;10.396;2023-08-31T02:36:43;5.17;;;2.47;;
2722;SDS011;1369;53.216;10.396;2023-08-31T02:39:10;2.23;;;2.03;;
2722;SDS011;1369;53.216;10.396;2023-08-31T02:41:36;3.27;;;2.07;;
2722;SDS011;1369;53.216;10.396;2023-08-31T02:44:07;3.27;;;2.33;;
2722;SDS011;1369;53.216;10.396;2023-08-31T02:46:32;2.03;;;1.80;;
2722;SDS011;1369;53.216;10.396;2023-08-31T02:49:02;2.67;;;2.00;;
2722;SDS011;1369;53.216;10.396;2023-08-31T02:51:28;4.60;;;2.37;;
2722;SDS011;1369;53.216;10.396;2023-08-31T02:53:58;1.90;;;1.50;;
2722;SDS011;1369;53.216;10.396;2023-08-31T02:56:24;2.80;;;1.80;;
2722;SDS011;1369;53.216;10.396;2023-08-31T02:58:50;2.10;;;1.50;;
2722;SDS011;1369;53.216;10.396;2023-08-31T03:01:16;3.10;;;1.63;;
2722;SDS011;1369;53.216;10.396;2023-08-31T03:03:42;2.63;;;2.13;;
2722;SDS011;1369;53.216;10.396;2023-08-31T03:06:13;3.63;;;1.97;;
2722;SDS011;1369;53.216;10.396;2023-08-31T03:08:40;2.60;;;2.13;;
2722;SDS011;1369;53.216;10.396;2023-08-31T03:11:09;2.37;;;1.57;;
2722;SDS011;1369;53.216;10.396;2023-08-31T03:13:34;3.80;;;1.70;;
2722;SDS011;1369;53.216;10.396;2023-08-31T03:16:00;4.17;;;2.73;;
2722;SDS011;1369;53.216;10.396;2023-08-31T03:18:28;2.43;;;2.10;;
2722;SDS011;1369;53.216;10.396;2023-08-31T03:20:56;2.53;;;2.03;;
2722;SDS011;1369;53.216;10.396;2023-08-31T03:23:21;2.93;;;2.30;;
2722;SDS011;1369;53.216;10.396;2023-08-31T03:25:48;1.83;;;1.67;;
2722;SDS011;1369;53.216;10.396;2023-08-31T03:28:14;1.60;;;1.30;;
2722;SDS011;1369;53.216;10.396;2023-08-31T03:30:44;2.57;;;1.80;;
2722;SDS011;1369;53.216;10.396;2023-08-31T03:33:10;3.03;;;2.60;;
2722;SDS011;1369;53.216;10.396;2023-08-31T03:35:40;2.17;;;1.90;;
2722;SDS011;1369;53.216;10.396;2023-08-31T03:38:06;2.20;;;1.97;;
2722;SDS011;1369;53.216;10.396;2023-08-31T03:40:35;2.97;;;2.67;;
2722;SDS011;1369;53.216;10.396;2023-08-31T03:43:01;2.63;;;1.73;;
2722;SDS011;1369;53.216;10.396;2023-08-31T03:45:27;1.50;;;1.23;;
2722;SDS011;1369;53.216;10.396;2023-08-31T03:47:52;2.90;;;1.97;;
2722;SDS011;1369;53.216;10.396;2023-08-31T03:50:20;2.00;;;1.80;;
2722;SDS011;1369;53.216;10.396;2023-08-31T03:52:46;3.47;;;1.10;;
2722;SDS011;1369;53.216;10.396;2023-08-31T03:55:16;2.37;;;1.63;;
2722;SDS011;1369;53.216;10.396;2023-08-31T03:57:42;1.43;;;1.33;;
2722;SDS011;1369;53.216;10.396;2023-08-31T04:00:08;2.17;;;1.97;;
2722;SDS011;1369;53.216;10.396;2023-08-31T04:05:10;1.53;;;1.20;;
2722;SDS011;1369;53.216;10.396;2023-08-31T04:07:36;1.60;;;1.33;;
2722;SDS011;1369;53.216;10.396;2023-08-31T04:10:02;1.63;;;1.50;;
2722;SDS011;1369;53.216;10.396;2023-08-31T04:12:28;2.47;;;1.90;;
2722;SDS011;1369;53.216;10.396;2023-08-31T04:14:55;2.90;;;1.70;;
2722;SDS011;1369;53.216;10.396;2023-08-31T04:17:21;2.23;;;2.03;;
2722;SDS011;1369;53.216;10.396;2023-08-31T04:19:49;4.50;;;1.53;;
2722;SDS011;1369;53.216;10.396;2023-08-31T04:22:15;3.97;;;1.77;;
2722;SDS011;1369;53.216;10.396;2023-08-31T04:24:43;2.90;;;1.90;;
2722;SDS011;1369;53.216;10.396;2023-08-31T04:27:08;1.60;;;1.40;;
2722;SDS011;1369;53.216;10.396;2023-08-31T04:29:34;3.80;;;2.20;;
2722;SDS011;1369;53.216;10.396;2023-08-31T04:31:59;1.97;;;1.73;;
2722;SDS011;1369;53.216;10.396;2023-08-31T04:34:25;2.87;;;1.70;;
2722;SDS011;1369;53.216;10.396;2023-08-31T04:36:52;1.83;;;1.50;;
2722;SDS011;1369;53.216;10.396;2023-08-31T04:39:17;2.00;;;1.50;;
2722;SDS011;1369;53.216;10.396;2023-08-31T04:41:43;3.20;;;2.20;;
2722;SDS011;1369;53.216;10.396;2023-08-31T04:44:08;1.73;;;1.40;;
2722;SDS011;1369;53.216;10.396;2023-08-31T04:46:35;9.07;;;2.30;;
2722;SDS011;1369;53.216;10.396;2023-08-31T04:49:01;2.63;;;2.30;;
2722;SDS011;1369;53.216;10.396;2023-08-31T04:51:32;2.63;;;1.67;;
2722;SDS011;1369;53.216;10.396;2023-08-31T04:53:59;2.80;;;2.60;;
2722;SDS011;1369;53.216;10.396;2023-08-31T04:56:29;3.73;;;2.60;;
2722;SDS011;1369;53.216;10.396;2023-08-31T04:58:57;2.63;;;2.20;;
2722;SDS011;1369;53.216;10.396;2023-08-31T05:01:23;1.90;;;1.33;;
2722;SDS011;1369;53.216;10.396;2023-08-31T05:03:48;4.27;;;2.57;;
2722;SDS011;1369;53.216;10.396;2023-08-31T05:06:15;2.83;;;2.63;;
2722;SDS011;1369;53.216;10.396;2023-08-31T05:08:41;3.40;;;2.80;;
2722;SDS011;1369;53.216;10.396;2023-08-31T05:11:06;2.63;;;1.87;;
2722;SDS011;1369;53.216;10.396;2023-08-31T05:13:32;2.13;;;1.90;;
2722;SDS011;1369;53.216;10.396;2023-08-31T05:15:58;2.50;;;1.97;;
2722;SDS011;1369;53.216;10.396;2023-08-31T05:18:24;1.97;;;1.50;;
2722;SDS011;1369;53.216;10.396;2023-08-31T05:20:50;2.63;;;2.43;;
2722;SDS011;1369;53.216;10.396;2023-08-31T05:23:15;2.37;;;1.77;;
2722;SDS011;1369;53.216;10.396;2023-08-31T05:25:43;2.33;;;2.13;;
2722;SDS011;1369;53.216;10.396;2023-08-31T05:28:09;2.50;;;2.30;;
2722;SDS011;1369;53.216;10.396;2023-08-31T05:30:35;2.70;;;2.23;;
2722;SDS011;1369;53.216;10.396;2023-08-31T05:33:01;1.97;;;1.53;;
2722;SDS011;1369;53.216;10.396;2023-08-31T05:35:29;2.07;;;1.87;;
2722;SDS011;1369;53.216;10.396;2023-08-31T05:37:55;2.53;;;1.83;;
2722;SDS011;1369;53.216;10.396;2023-08-31T05:40:21;2.93;;;2.33;;
2722;SDS011;1369;53.216;10.396;2023-08-31T05:42:47;5.93;;;2.43;;
2722;SDS011;1369;53.216;10.396;2023-08-31T05:45:12;2.23;;;2.00;;
2722;SDS011;1369;53.216;10.396;2023-08-31T05:47:40;1.60;;;1.50;;
2722;SDS011;1369;53.216;10.396;2023-08-31T05:50:06;2.13;;;1.93;;
2722;SDS011;1369;53.216;10.396;2023-08-31T05:52:32;2.00;;;1.80;;
2722;SDS011;1369;53.216;10.396;2023-08-31T05:54:58;2.23;;;1.47;;
2722;SDS011;1369;53.216;10.396;2023-08-31T05:57:23;2.60;;;1.93;;
2722;SDS011;1369;53.216;10.396;2023-08-31T05:59:52;5.33;;;3.60;;
2722;SDS011;1369;53.216;10.396;2023-08-31T06:02:18;2.40;;;2.03;;
2722;SDS011;1369;53.216;10.396;2023-08-31T06:04:44;3.77;;;2.47;;
2722;SDS011;1369;53.216;10.396;2023-08-31T06:07:09;3.80;;;2.43;;
2722;SDS011;1369;53.216;10.396;2023-08-31T06:09:35;1.70;;;1.50;;
2722;SDS011;1369;53.216;10.396;2023-08-31T06:12:00;3.90;;;2.33;;
2722;SDS011;1369;53.216;10.396;2023-08-31T06:14:26;2.37;;;1.87;;
2722;SDS011;1369;53.216;10.396;2023-08-31T06:16:52;4.60;;;3.70;;
2722;SDS011;1369;53.216;10.396;2023-08-31T06:19:17;1.63;;;1.50;;
2722;SDS011;1369;53.216;10.396;2023-08-31T06:21:43;2.10;;;1.90;;
2722;SDS011;1369;53.216;10.396;2023-08-31T06:24:09;2.73;;;2.40;;
2722;SDS011;1369;53.216;10.396;2023-08-31T06:26:38;4.03;;;2.77;;
2722;SDS011;1369;53.216;10.396;2023-08-31T06:29:04;2.23;;;2.03;;
2722;SDS011;1369;53.216;10.396;2023-08-31T06:31:30;3.57;;;2.30;;
2722;SDS011;1369;53.216;10.396;2023-08-31T06:33:55;3.50;;;2.27;;
2722;SDS011;1369;53.216;10.396;2023-08-31T06:36:23;2.73;;;2.53;;
2722;SDS011;1369;53.216;10.396;2023-08-31T06:38:48;3.30;;;2.20;;
2722;SDS011;1369;53.216;10.396;2023-08-31T06:41:14;3.67;;;3.27;;
2722;SDS011;1369;53.216;10.396;2023-08-31T06:43:40;1.93;;;1.50;;
2722;SDS011;1369;53.216;10.396;2023-08-31T06:46:07;2.93;;;2.20;;
2722;SDS011;1369;53.216;10.396;2023-08-31T06:48:33;2.33;;;1.90;;
2722;SDS011;1369;53.216;10.396;2023-08-31T06:50:59;3.70;;;2.10;;
2722;SDS011;1369;53.216;10.396;2023-08-31T06:53:24;2.60;;;2.10;;
2722;SDS011;1369;53.216;10.396;2023-08-31T06:55:50;2.27;;;1.93;;
2722;SDS011;1369;53.216;10.396;2023-08-31T06:58:15;3.77;;;1.83;;
2722;SDS011;1369;53.216;10.396;2023-08-31T07:00:41;2.77;;;2.13;;
2722;SDS011;1369;53.216;10.396;2023-08-31T07:03:07;2.57;;;1.43;;
2722;SDS011;1369;53.216;10.396;2023-08-31T07:05:33;1.60;;;1.50;;
2722;SDS011;1369;53.216;10.396;2023-08-31T07:08:02;4.60;;;2.30;;
2722;SDS011;1369;53.216;10.396;2023-08-31T07:10:28;1.50;;;1.40;;
2722;SDS011;1369;53.216;10.396;2023-08-31T07:12:54;2.13;;;1.63;;
2722;SDS011;1369;53.216;10.396;2023-08-31T07:15:20;2.10;;;1.87;;
2722;SDS011;1369;53.216;10.396;2023-08-31T07:17:45;2.27;;;2.07;;
2722;SDS011;1369;53.216;10.396;2023-08-31T07:20:11;3.50;;;2.43;;
2722;SDS011;1369;53.216;10.396;2023-08-31T07:22:37;4.73;;;2.30;;
2722;SDS011;1369;53.216;10.396;2023-08-31T07:25:04;3.10;;;2.27;;
2722;SDS011;1369;53.216;10.396;2023-08-31T07:27:32;2.20;;;1.67;;
2722;SDS011;1369;53.216;10.396;2023-08-31T07:29:57;2.63;;;2.43;;
2722;SDS011;1369;53.216;10.396;2023-08-31T07:32:23;2.20;;;1.77;;
2722;SDS011;1369;53.216;10.396;2023-08-31T07:34:49;2.57;;;2.10;;
2722;SDS011;1369;53.216;10.396;2023-08-31T07:37:14;2.17;;;1.97;;
2722;SDS011;1369;53.216;10.396;2023-08-31T07:39:40;2.27;;;1.70;;
2722;SDS011;1369;53.216;10.396;2023-08-31T07:42:05;1.80;;;1.60;;
2722;SDS011;1369;53.216;10.396;2023-08-31T07:44:31;3.60;;;2.00;;
2722;SDS011;1369;53.216;10.396;2023-08-31T07:46:57;1.83;;;1.63;;
2722;SDS011;1369;53.216;10.396;2023-08-31T07:49:22;1.90;;;1.60;;
2722;SDS011;1369;53.216;10.396;2023-08-31T07:51:53;1.77;;;1.63;;
2722;SDS011;1369;53.216;10.396;2023-08-31T07:54:22;3.33;;;1.57;;
2722;SDS011;1369;53.216;10.396;2023-08-31T07:56:48;1.80;;;1.60;;
2722;SDS011;1369;53.216;10.396;2023-08-31T07:59:14;2.80;;;1.77;;
2722;SDS011;1369;53.216;10.396;2023-08-31T08:01:40;1.83;;;1.70;;
2722;SDS011;1369;53.216;10.396;2023-08-31T08:04:09;3.23;;;1.63;;
2722;SDS011;1369;53.216;10.396;2023-08-31T08:06:37;3.40;;;2.00;;
2722;SDS011;1369;53.216;10.396;2023-08-31T08:09:03;2.40;;;1.77;;
2722;SDS011;1369;53.216;10.396;2023-08-31T08:11:29;1.90;;;1.63;;
2722;SDS011;1369;53.216;10.396;2023-08-31T08:13:55;2.73;;;2.00;;
2722;SDS011;1369;53.216;10.396;2023-08-31T08:16:21;5.13;;;2.73;;
2722;SDS011;1369;53.216;10.396;2023-08-31T08:18:47;2.40;;;2.10;;
2722;SDS011;1369;53.216;10.396;2023-08-31T08:21:13;2.50;;;2.07;;
2722;SDS011;1369;53.216;10.396;2023-08-31T08:23:38;1.70;;;1.57;;
2722;SDS011;1369;53.216;10.396;2023-08-31T08:26:04;2.70;;;2.33;;
2722;SDS011;1369;53.216;10.396;2023-08-31T08:28:30;3.03;;;1.93;;
2722;SDS011;1369;53.216;10.396;2023-08-31T08:30:55;1.90;;;1.70;;
2722;SDS011;1369;53.216;10.396;2023-08-31T08:33:21;7.50;;;2.57;;
2722;SDS011;1369;53.216;10.396;2023-08-31T08:35:47;2.70;;;2.13;;
2722;SDS011;1369;53.216;10.396;2023-08-31T08:38:12;5.77;;;1.80;;
2722;SDS011;1369;53.216;10.396;2023-08-31T08:40:38;4.23;;;2.33;;
2722;SDS011;1369;53.216;10.396;2023-08-31T08:43:07;4.43;;;2.20;;
2722;SDS011;1369;53.216;10.396;2023-08-31T08:45:37;2.03;;;1.83;;
2722;SDS011;1369;53.216;10.396;2023-08-31T08:48:04;2.40;;;1.17;;
2722;SDS011;1369;53.216;10.396;2023-08-31T08:50:31;2.33;;;1.60;;
2722;SDS011;1369;53.216;10.396;2023-08-31T08:52:59;1.80;;;1.50;;
2722;SDS011;1369;53.216;10.396;2023-08-31T08:55:27;2.30;;;1.53;;
2722;SDS011;1369;53.216;10.396;2023-08-31T08:57:52;1.40;;;1.13;;
2722;SDS011;1369;53.216;10.396;2023-08-31T09:00:18;5.80;;;1.53;;
2722;SDS011;1369;53.216;10.396;2023-08-31T09:02:44;2.07;;;1.40;;
2722;SDS011;1369;53.216;10.396;2023-08-31T09:05:10;2.27;;;1.50;;
2722;SDS011;1369;53.216;10.396;2023-08-31T09:07:36;2.10;;;1.40;;
2722;SDS011;1369;53.216;10.396;2023-08-31T09:10:22;1.30;;;1.17;;
2722;SDS011;1369;53.216;10.396;2023-08-31T09:12:47;2.10;;;1.40;;
2722;SDS011;1369;53.216;10.396;2023-08-31T09:15:13;1.30;;;1.00;;
2722;SDS011;1369;53.216;10.396;2023-08-31T09:17:42;1.70;;;1.40;;
2722;SDS011;1369;53.216;10.396;2023-08-31T09:20:10;1.40;;;1.20;;
2722;SDS011;1369;53.216;10.396;2023-08-31T09:22:35;2.20;;;1.17;;
2722;SDS011;1369;53.216;10.396;2023-08-31T09:25:01;1.63;;;1.23;;
2722;SDS011;1369;53.216;10.396;2023-08-31T09:27:30;1.40;;;1.20;;
2722;SDS011;1369;53.216;10.396;2023-08-31T09:29:58;1.30;;;1.20;;
2722;SDS011;1369;53.216;10.396;2023-08-31T09:32:23;2.27;;;1.10;;
2722;SDS011;1369;53.216;10.396;2023-08-31T09:34:49;1.60;;;1.50;;
2722;SDS011;1369;53.216;10.396;2023-08-31T09:37:15;3.57;;;2.03;;
2722;SDS011;1369;53.216;10.396;2023-08-31T09:39:41;2.20;;;1.70;;
2722;SDS011;1369;53.216;10.396;2023-08-31T09:42:07;1.70;;;1.60;;
2722;SDS011;1369;53.216;10.396;2023-08-31T09:44:33;1.93;;;1.70;;
2722;SDS011;1369;53.216;10.396;2023-08-31T09:47:04;1.87;;;1.40;;
2722;SDS011;1369;53.216;10.396;2023-08-31T09:49:30;2.83;;;1.70;;
2722;SDS011;1369;53.216;10.396;2023-08-31T09:51:57;2.67;;;2.17;;
2722;SDS011;1369;53.216;10.396;2023-08-31T09:54:27;3.40;;;1.77;;
2722;SDS011;1369;53.216;10.396;2023-08-31T09:56:54;2.13;;;1.57;;
2722;SDS011;1369;53.216;10.396;2023-08-31T09:59:24;1.50;;;1.33;;
2722;SDS011;1369;53.216;10.396;2023-08-31T10:01:50;1.30;;;1.13;;
2722;SDS011;1369;53.216;10.396;2023-08-31T10:04:15;1.77;;;1.47;;
2722;SDS011;1369;53.216;10.396;2023-08-31T10:06:42;1.20;;;1.00;;
2722;SDS011;1369;53.216;10.396;2023-08-31T10:09:08;1.37;;;1.17;;
2722;SDS011;1369;53.216;10.396;2023-08-31T10:11:34;1.30;;;1.10;;
2722;SDS011;1369;53.216;10.396;2023-08-31T10:14:01;1.43;;;1.33;;
2722;SDS011;1369;53.216;10.396;2023-08-31T10:16:28;9.33;;;2.60;;
2722;SDS011;1369;53.216;10.396;2023-08-31T10:18:55;1.70;;;1.60;;
2722;SDS011;1369;53.216;10.396;2023-08-31T10:21:21;1.50;;;1.20;;
2722;SDS011;1369;53.216;10.396;2023-08-31T10:23:48;1.60;;;1.40;;
2722;SDS011;1369;53.216;10.396;2023-08-31T10:26:27;1.63;;;1.50;;
2722;SDS011;1369;53.216;10.396;2023-08-31T10:28:54;1.93;;;1.63;;
2722;SDS011;1369;53.216;10.396;2023-08-31T10:31:22;4.07;;;1.80;;
2722;SDS011;1369;53.216;10.396;2023-08-31T10:34:01;3.00;;;2.10;;
2722;SDS011;1369;53.216;10.396;2023-08-31T10:36:38;2.13;;;1.63;;
2722;SDS011;1369;53.216;10.396;2023-08-31T10:39:13;1.97;;;1.43;;
2722;SDS011;1369;53.216;10.396;2023-08-31T10:41:41;1.77;;;1.57;;
2722;SDS011;1369;53.216;10.396;2023-08-31T10:44:26;2.67;;;1.50;;
2722;SDS011;1369;53.216;10.396;2023-08-31T10:46:55;1.63;;;1.53;;
2722;SDS011;1369;53.216;10.396;2023-08-31T10:49:26;1.60;;;1.20;;
2722;SDS011;1369;53.216;10.396;2023-08-31T10:51:56;1.70;;;1.30;;
2722;SDS011;1369;53.216;10.396;2023-08-31T10:54:27;1.93;;;1.30;;
2722;SDS011;1369;53.216;10.396;2023-08-31T10:59:26;2.00;;;1.80;;
2722;SDS011;1369;53.216;10.396;2023-08-31T11:02:06;1.70;;;1.60;;
2722;SDS011;1369;53.216;10.396;2023-08-31T11:04:38;2.27;;;1.50;;
2722;SDS011;1369;53.216;10.396;2023-08-31T11:07:24;3.37;;;1.97;;
2722;SDS011;1369;53.216;10.396;2023-08-31T11:09:51;1.73;;;1.00;;
2722;SDS011;1369;53.216;10.396;2023-08-31T11:12:16;1.60;;;1.40;;
2722;SDS011;1369;53.216;10.396;2023-08-31T11:14:42;1.87;;;1.23;;
2722;SDS011;1369;53.216;10.396;2023-08-31T11:17:08;2.53;;;1.70;;
2722;SDS011;1369;53.216;10.396;2023-08-31T11:19:34;1.60;;;1.10;;
2722;SDS011;1369;53.216;10.396;2023-08-31T11:22:01;1.20;;;1.00;;
2722;SDS011;1369;53.216;10.396;2023-08-31T11:24:31;1.40;;;1.20;;
2722;SDS011;1369;53.216;10.396;2023-08-31T11:26:58;2.27;;;1.57;;
2722;SDS011;1369;53.216;10.396;2023-08-31T11:29:24;1.60;;;1.20;;
2722;SDS011;1369;53.216;10.396;2023-08-31T11:31:50;1.87;;;1.40;;
2722;SDS011;1369;53.216;10.396;2023-08-31T11:34:16;2.33;;;1.20;;
2722;SDS011;1369;53.216;10.396;2023-08-31T11:36:44;3.50;;;1.70;;
2722;SDS011;1369;53.216;10.396;2023-08-31T11:39:12;1.83;;;1.27;;
2722;SDS011;1369;53.216;10.396;2023-08-31T11:41:38;1.47;;;1.33;;
2722;SDS011;1369;53.216;10.396;2023-08-31T11:44:12;1.60;;;1.40;;
2722;SDS011;1369;53.216;10.396;2023-08-31T11:46:41;1.60;;;1.30;;
2722;SDS011;1369;53.216;10.396;2023-08-31T11:49:08;3.10;;;1.60;;
2722;SDS011;1369;53.216;10.396;2023-08-31T11:51:34;1.40;;;1.30;;
2722;SDS011;1369;53.216;10.396;2023-08-31T11:54:02;1.70;;;1.20;;
2722;SDS011;1369;53.216;10.396;2023-08-31T11:56:45;1.80;;;1.30;;
2722;SDS011;1369;53.216;10.396;2023-08-31T11:59:15;1.30;;;1.10;;
2722;SDS011;1369;53.216;10.396;2023-08-31T12:01:48;1.60;;;1.30;;
2722;SDS011;1369;53.216;10.396;2023-08-31T12:04:21;1.20;;;0.90;;
2722;SDS011;1369;53.216;10.396;2023-08-31T12:06:58;1.30;;;1.07;;
2722;SDS011;1369;53.216;10.396;2023-08-31T12:09:29;2.33;;;1.20;;
2722;SDS011;1369;53.216;10.396;2023-08-31T12:11:55;1.70;;;1.33;;
2722;SDS011;1369;53.216;10.396;2023-08-31T12:14:22;2.50;;;1.70;;
2722;SDS011;1369;53.216;10.396;2023-08-31T12:16:49;1.50;;;1.10;;
2722;SDS011;1369;53.216;10.396;2023-08-31T12:19:16;7.23;;;1.17;;
2722;SDS011;1369;53.216;10.396;2023-08-31T12:21:46;2.77;;;2.57;;
2722;SDS011;1369;53.216;10.396;2023-08-31T12:24:12;1.50;;;1.20;;
2722;SDS011;1369;53.216;10.396;2023-08-31T12:26:38;2.33;;;1.27;;
2722;SDS011;1369;53.216;10.396;2023-08-31T12:29:05;1.63;;;1.23;;
2722;SDS011;1369;53.216;10.396;2023-08-31T12:31:32;1.60;;;1.13;;
2722;SDS011;1369;53.216;10.396;2023-08-31T12:33:58;2.30;;;1.60;;
2722;SDS011;1369;53.216;10.396;2023-08-31T12:36:25;2.17;;;1.47;;
2722;SDS011;1369;53.216;10.396;2023-08-31T12:38:51;1.77;;;1.53;;
2722;SDS011;1369;53.216;10.396;2023-08-31T12:41:17;1.93;;;1.60;;
2722;SDS011;1369;53.216;10.396;2023-08-31T12:43:45;1.67;;;1.20;;
2722;SDS011;1369;53.216;10.396;2023-08-31T12:46:10;1.60;;;1.17;;
2722;SDS011;1369;53.216;10.396;2023-08-31T12:48:38;1.70;;;1.50;;
2722;SDS011;1369;53.216;10.396;2023-08-31T12:51:04;1.93;;;1.53;;
2722;SDS011;1369;53.216;10.396;2023-08-31T12:53:30;1.30;;;0.97;;
2722;SDS011;1369;53.216;10.396;2023-08-31T12:55:56;1.40;;;0.97;;
2722;SDS011;1369;53.216;10.396;2023-08-31T12:58:22;1.30;;;1.10;;
2722;SDS011;1369;53.216;10.396;2023-08-31T13:00:48;1.70;;;1.50;;
2722;SDS011;1369;53.216;10.396;2023-08-31T13:03:15;2.17;;;1.60;;
2722;SDS011;1369;53.216;10.396;2023-08-31T13:05:41;1.47;;;1.20;;
2722;SDS011;1369;53.216;10.396;2023-08-31T13:08:08;1.40;;;1.13;;
2722;SDS011;1369;53.216;10.396;2023-08-31T13:10:34;3.50;;;1.40;;
2722;SDS011;1369;53.216;10.396;2023-08-31T13:13:01;1.80;;;1.63;;
2722;SDS011;1369;53.216;10.396;2023-08-31T13:15:27;3.77;;;1.47;;
2722;SDS011;1369;53.216;10.396;2023-08-31T13:17:52;1.90;;;1.23;;
2722;SDS011;1369;53.216;10.396;2023-08-31T13:20:18;1.50;;;1.27;;
2722;SDS011;1369;53.216;10.396;2023-08-31T13:22:44;1.40;;;1.20;;
2722;SDS011;1369;53.216;10.396;2023-08-31T13:25:09;1.83;;;1.47;;
2722;SDS011;1369;53.216;10.396;2023-08-31T13:27:36;1.77;;;1.40;;
2722;SDS011;1369;53.216;10.396;2023-08-31T13:30:02;1.50;;;1.10;;
2722;SDS011;1369;53.216;10.396;2023-08-31T13:32:32;1.90;;;1.20;;
2722;SDS011;1369;53.216;10.396;2023-08-31T13:34:58;1.30;;;1.07;;
2722;SDS011;1369;53.216;10.396;2023-08-31T13:37:24;1.40;;;1.20;;
2722;SDS011;1369;53.216;10.396;2023-08-31T13:39:50;1.73;;;1.20;;
2722;SDS011;1369;53.216;10.396;2023-08-31T13:42:22;6.80;;;1.40;;
2722;SDS011;1369;53.216;10.396;2023-08-31T13:44:47;1.30;;;0.93;;
2722;SDS011;1369;53.216;10.396;2023-08-31T13:47:13;1.50;;;1.10;;
2722;SDS011;1369;53.216;10.396;2023-08-31T13:49:39;1.50;;;1.10;;
2722;SDS011;1369;53.216;10.396;2023-08-31T13:52:05;1.30;;;0.90;;
2722;SDS011;1369;53.216;10.396;2023-08-31T13:54:31;1.30;;;1.00;;
2722;SDS011;1369;53.216;10.396;2023-08-31T13:56:58;1.20;;;0.90;;
2722;SDS011;1369;53.216;10.396;2023-08-31T13:59:24;1.30;;;0.90;;
2722;SDS011;1369;53.216;10.396;2023-08-31T14:01:53;1.30;;;1.10;;
2722;SDS011;1369;53.216;10.396;2023-08-31T14:04:21;1.30;;;1.03;;
2722;SDS011;1369;53.216;10.396;2023-08-31T14:06:47;3.53;;;1.00;;
2722;SDS011;1369;53.216;10.396;2023-08-31T14:09:13;1.30;;;0.90;;
2722;SDS011;1369;53.216;10.396;2023-08-31T14:11:39;1.40;;;1.00;;
2722;SDS011;1369;53.216;10.396;2023-08-31T14:14:05;1.40;;;1.07;;
2722;SDS011;1369;53.216;10.396;2023-08-31T14:16:34;1.20;;;0.80;;
2722;SDS011;1369;53.216;10.396;2023-08-31T14:19:02;1.20;;;0.80;;
2722;SDS011;1369;53.216;10.396;2023-08-31T14:21:28;2.23;;;1.30;;
2722;SDS011;1369;53.216;10.396;2023-08-31T14:23:54;1.20;;;0.80;;
2722;SDS011;1369;53.216;10.396;2023-08-31T14:26:21;1.20;;;0.90;;
2722;SDS011;1369;53.216;10.396;2023-08-31T14:28:48;1.20;;;0.80;;
2722;SDS011;1369;53.216;10.396;2023-08-31T14:31:17;1.20;;;0.80;;
2722;SDS011;1369;53.216;10.396;2023-08-31T14:33:44;1.60;;;1.07;;
2722;SDS011;1369;53.216;10.396;2023-08-31T14:36:09;2.80;;;1.07;;
2722;SDS011;1369;53.216;10.396;2023-08-31T14:38:36;1.30;;;1.00;;
2722;SDS011;1369;53.216;10.396;2023-08-31T14:41:02;1.30;;;1.03;;
2722;SDS011;1369;53.216;10.396;2023-08-31T14:43:27;3.50;;;1.10;;
2722;SDS011;1369;53.216;10.396;2023-08-31T14:45:53;1.20;;;0.80;;
2722;SDS011;1369;53.216;10.396;2023-08-31T14:48:19;1.20;;;0.80;;
2722;SDS011;1369;53.216;10.396;2023-08-31T14:50:44;2.33;;;1.10;;
2722;SDS011;1369;53.216;10.396;2023-08-31T14:53:10;1.30;;;0.90;;
2722;SDS011;1369;53.216;10.396;2023-08-31T14:55:36;1.20;;;0.90;;
2722;SDS011;1369;53.216;10.396;2023-08-31T14:58:03;1.40;;;0.87;;
2722;SDS011;1369;53.216;10.396;2023-08-31T15:00:31;1.47;;;1.30;;
2722;SDS011;1369;53.216;10.396;2023-08-31T15:02:56;1.87;;;0.93;;
2722;SDS011;1369;53.216;10.396;2023-08-31T15:05:22;1.30;;;0.97;;
2722;SDS011;1369;53.216;10.396;2023-08-31T15:07:50;1.37;;;1.10;;
2722;SDS011;1369;53.216;10.396;2023-08-31T15:10:16;1.50;;;1.10;;
2722;SDS011;1369;53.216;10.396;2023-08-31T15:12:43;2.23;;;1.20;;
2722;SDS011;1369;53.216;10.396;2023-08-31T15:15:09;1.20;;;0.80;;
2722;SDS011;1369;53.216;10.396;2023-08-31T15:17:35;1.20;;;0.80;;
2722;SDS011;1369;53.216;10.396;2023-08-31T15:20:01;1.40;;;1.10;;